Time;durP1;ratioP1;P1;durP2;ratioP2;P2;SDS_P1;SDS_P2;PMS_P1;PMS_P2;Temp;Humidity;BMP_temperature;BMP_pressure;BME280_temperature;BME280_humidity;BME280_pressure;Samples;Min_cycle;Max_cycle;Signal;HPM_P1;HPM_P2
2022/10/03 00:01:45;;;;;;;36.67;14.98;;;;;;;;;;6272203;22;20019;-77
2022/10/03 00:04:31;;;;;;;26.63;15.85;;;;;;;;;;6298830;22;20027;-77
2022/10/03 00:07:16;;;;;;;36.65;19.40;;;;;;;;;;6300685;22;20027;-78
2022/10/03 00:10:01;;;;;;;23.80;13.38;;;;;;;;;;6300227;22;20286;-77
2022/10/03 00:12:28;;;;;;;;;;;;;;;;;;6273884;22;20504;-77
2022/10/03 00:15:04;;;;;;;48.05;16.70;;;;;;;;;;6302137;22;19919;-77
2022/10/03 00:17:44;;;;;;;159.73;18.58;;;;;;;;;;6303067;22;20019;-77
2022/10/03 00:20:19;;;;;;;351.38;23.02;;;;;;;;;;6302393;22;20023;-77
2022/10/03 00:22:58;;;;;;;27.35;11.52;;;;;;;;;;6275229;22;20023;-77
2022/10/03 00:25:33;;;;;;;32.70;16.08;;;;;;;;;;6302788;22;20460;-77
2022/10/03 00:28:09;;;;;;;36.33;17.77;;;;;;;;;;6303499;22;20081;-77
2022/10/03 00:31:16;;;;;;;32.55;16.83;;;;;;;;;;6277090;22;20015;-77
2022/10/03 00:33:50;;;;;;;30.95;15.45;;;;;;;;;;6205305;22;20016;-77
2022/10/03 00:36:42;;;;;;;26.35;13.80;;;;;;;;;;6240670;22;20103;-77
2022/10/03 00:39:18;;;;;;;75.22;16.45;;;;;;;;;;6239108;23;20028;-77
2022/10/03 00:42:07;;;;;;;309.13;22.30;;;;;;;;;;6241739;23;20024;-77
2022/10/03 00:44:43;;;;;;;191.10;19.48;;;;;;;;;;6239870;23;20020;-77
2022/10/03 00:47:18;;;;;;;276.75;18.17;;;;;;;;;;6240799;23;20095;-76
2022/10/03 00:50:12;;;;;;;421.27;25.63;;;;;;;;;;6241407;22;20099;-76
2022/10/03 00:52:42;;;;;;;226.88;20.98;;;;;;;;;;6239613;23;20020;-77
2022/10/03 00:55:22;;;;;;;129.30;14.80;;;;;;;;;;6242468;23;20102;-76
2022/10/03 00:58:06;;;;;;;162.02;20.50;;;;;;;;;;6239632;23;20028;-77
2022/10/03 01:00:42;;;;;;;47.38;15.63;;;;;;;;;;6241556;22;20102;-77
2022/10/03 01:03:09;;;;;;;216.82;25.08;;;;;;;;;;6241252;22;20405;-76
2022/10/03 01:06:01;;;;;;;139.23;19.42;;;;;;;;;;6239815;23;20016;-77
2022/10/03 01:08:40;;;;;;;163.38;16.15;;;;;;;;;;6239127;23;20601;-76
2022/10/03 01:11:19;;;;;;;209.45;15.20;;;;;;;;;;6241063;23;20017;-76
2022/10/03 01:13:46;;;;;;;555.58;23.80;;;;;;;;;;6239977;23;20389;-76
2022/10/03 01:16:26;;;;;;;198.63;11.88;;;;;;;;;;6240184;23;20747;-76
2022/10/03 01:19:04;;;;;;;149.93;15.18;;;;;;;;;;6240701;22;20022;-76
2022/10/03 01:21:45;;;;;;;102.28;13.95;;;;;;;;;;6239171;23;20020;-77
2022/10/03 01:24:26;;;;;;;43.95;12.20;;;;;;;;;;6239974;22;20059;-76
2022/10/03 01:27:14;;;;;;;29.83;15.13;;;;;;;;;;6240749;23;20154;-77
2022/10/03 01:33:08;;;;;;;114.35;23.92;;;;;;;;;;6244883;22;20240;-76
2022/10/03 01:35:56;;;;;;;518.35;38.13;;;;;;;;;;6262333;22;20102;-76
2022/10/03 01:38:26;;;;;;;79.93;21.55;;;;;;;;;;6301444;22;20050;-77
2022/10/03 01:41:21;;;;;;;501.05;38.72;;;;;;;;;;6301925;22;20103;-77
2022/10/03 01:43:55;;;;;;;37.50;13.43;;;;;;;;;;6239268;22;20465;-77
2022/10/03 01:46:37;;;;;;;101.82;14.48;;;;;;;;;;6299248;22;20019;-77
2022/10/03 01:49:17;;;;;;;88.40;11.05;;;;;;;;;;6300372;22;20453;-77
2022/10/03 01:52:10;;;;;;;106.97;14.48;;;;;;;;;;6300020;22;20027;-76
2022/10/03 01:54:58;;;;;;;101.22;15.50;;;;;;;;;;6273581;22;20461;-76
2022/10/03 01:57:38;;;;;;;122.90;21.13;;;;;;;;;;6286106;22;20022;-76
2022/10/03 02:00:11;;;;;;;60.95;16.48;;;;;;;;;;6302189;22;20026;-76
2022/10/03 02:02:49;;;;;;;66.43;13.57;;;;;;;;;;6276893;22;20046;-77
2022/10/03 02:05:19;;;;;;;89.97;16.05;;;;;;;;;;6301756;22;20027;-75
2022/10/03 02:08:08;;;;;;;71.88;15.20;;;;;;;;;;6302176;22;20106;-76
2022/10/03 02:10:41;;;;;;;49.90;15.63;;;;;;;;;;6302398;22;20098;-77
2022/10/03 02:13:14;;;;;;;144.27;15.40;;;;;;;;;;6299837;22;20015;-76
2022/10/03 02:16:06;;;;;;;295.55;20.65;;;;;;;;;;6300236;22;20451;-76
2022/10/03 02:18:45;;;;;;;79.60;12.25;;;;;;;;;;6301917;22;20023;-76
2022/10/03 02:21:17;;;;;;;42.17;13.85;;;;;;;;;;6301370;22;20093;-76
2022/10/03 02:24:06;;;;;;;96.95;19.63;;;;;;;;;;6300559;22;20027;-76
2022/10/03 02:26:36;;;;;;;39.40;14.63;;;;;;;;;;6300054;22;20027;-76
2022/10/03 02:29:25;;;;;;;86.05;13.95;;;;;;;;;;6277010;22;20385;-76
2022/10/03 02:32:11;;;;;;;144.10;16.33;;;;;;;;;;6302002;22;20019;-75
2022/10/03 02:35:16;;;;;;;73.30;12.80;;;;;;;;;;6299702;22;20051;-76
2022/10/03 02:38:05;;;;;;;94.35;11.38;;;;;;;;;;6302020;22;20030;-76
2022/10/03 02:40:39;;;;;;;94.57;14.50;;;;;;;;;;6301561;22;20069;-76
2022/10/03 02:43:25;;;;;;;104.82;16.00;;;;;;;;;;6300930;22;20522;-76
2022/10/03 02:46:05;;;;;;;85.38;13.95;;;;;;;;;;6301316;22;20019;-76
2022/10/03 02:48:35;;;;;;;98.43;13.90;;;;;;;;;;6301430;22;20019;-76
2022/10/03 02:51:09;;;;;;;454.75;33.10;;;;;;;;;;6301467;22;20015;-77
2022/10/03 02:53:40;;;;;;;80.20;14.60;;;;;;;;;;6301815;22;20404;-76
2022/10/03 02:56:18;;;;;;;59.20;15.88;;;;;;;;;;6300629;22;20468;-76
2022/10/03 02:58:55;;;;;;;72.53;13.05;;;;;;;;;;6276216;22;20098;-76
2022/10/03 03:01:26;;;;;;;22.20;11.13;;;;;;;;;;6300424;22;20102;-76
2022/10/03 03:04:03;;;;;;;39.42;12.77;;;;;;;;;;6300526;22;20015;-76
2022/10/03 03:06:36;;;;;;;34.30;11.07;;;;;;;;;;6300383;22;20023;-76
2022/10/03 03:09:10;;;;;;;48.17;11.77;;;;;;;;;;6301362;22;20344;-76
2022/10/03 03:11:37;;;;;;;43.72;12.35;;;;;;;;;;6300567;22;20045;-76
2022/10/03 03:14:23;;;;;;;32.40;10.63;;;;;;;;;;6301133;22;20015;-76
2022/10/03 03:17:22;;;;;;;51.90;12.77;;;;;;;;;;6301322;22;20095;-77
2022/10/03 03:19:52;;;;;;;107.72;18.55;;;;;;;;;;6285553;22;20110;-76
2022/10/03 03:22:34;;;;;;;221.25;21.27;;;;;;;;;;6300945;22;20721;-76
2022/10/03 03:25:12;;;;;;;346.42;19.00;;;;;;;;;;6300808;22;20016;-76
2022/10/03 03:28:06;;;;;;;117.90;11.38;;;;;;;;;;6300981;22;20027;-76
2022/10/03 03:30:42;;;;;;;56.95;9.95;;;;;;;;;;6301454;22;20523;-75
2022/10/03 03:33:31;;;;;;;264.92;24.92;;;;;;;;;;6298112;22;20110;-76
2022/10/03 03:36:22;;;;;;;196.25;17.55;;;;;;;;;;6300907;22;20042;-76
2022/10/03 03:39:31;;;;;;;145.40;17.00;;;;;;;;;;6301482;22;20106;-77
2022/10/03 03:42:17;;;;;;;99.47;18.25;;;;;;;;;;6175445;23;20031;-76
2022/10/03 03:44:57;;;;;;;153.85;19.67;;;;;;;;;;6298905;22;20102;-76
2022/10/03 03:47:47;;;;;;;115.45;17.85;;;;;;;;;;6301952;22;20225;-76
2022/10/03 03:50:33;;;;;;;100.85;20.55;;;;;;;;;;6269869;22;20503;-77
2022/10/03 03:53:10;;;;;;;41.78;14.73;;;;;;;;;;6302611;22;20059;-76
2022/10/03 03:56:09;;;;;;;47.58;11.45;;;;;;;;;;6301551;22;20027;-76
2022/10/03 03:58:40;;;;;;;47.00;12.48;;;;;;;;;;6302377;22;20019;-76
2022/10/03 04:01:26;;;;;;;120.20;12.85;;;;;;;;;;6303545;22;20103;-76
2022/10/03 04:03:54;;;;;;;98.22;17.33;;;;;;;;;;6304321;22;20050;-76
2022/10/03 04:06:40;;;;;;;45.33;15.25;;;;;;;;;;6303820;22;20061;-76
2022/10/03 04:09:10;;;;;;;68.82;15.98;;;;;;;;;;6277125;22;20093;-75
2022/10/03 04:11:48;;;;;;;70.15;16.33;;;;;;;;;;6276020;22;20023;-75
2022/10/03 04:14:34;;;;;;;59.35;15.07;;;;;;;;;;6303803;22;20023;-76
2022/10/03 04:20:18;;;;;;;52.55;14.32;;;;;;;;;;6301027;22;20096;-76
2022/10/03 04:23:18;;;;;;;49.00;13.82;;;;;;;;;;6278552;22;20561;-76
2022/10/03 04:26:10;;;;;;;84.80;15.02;;;;;;;;;;6299857;22;20468;-76
2022/10/03 04:29:03;;;;;;;39.25;14.98;;;;;;;;;;6278007;22;20050;-76
2022/10/03 04:32:00;;;;;;;98.20;15.30;;;;;;;;;;6302437;22;20098;-76
2022/10/03 04:34:49;;;;;;;63.90;12.85;;;;;;;;;;6188275;22;20028;-76
2022/10/03 04:37:31;;;;;;;122.13;16.23;;;;;;;;;;6240037;23;20836;-76
2022/10/03 04:40:17;;;;;;;96.78;16.23;;;;;;;;;;6239938;23;20075;-76
2022/10/03 04:42:47;;;;;;;63.92;14.02;;;;;;;;;;6240473;23;20213;-76
2022/10/03 04:45:27;;;;;;;89.80;14.73;;;;;;;;;;6239737;22;20070;-76
2022/10/03 04:48:11;;;;;;;69.60;12.57;;;;;;;;;;6239752;22;20028;-76
2022/10/03 04:51:06;;;;;;;142.48;17.63;;;;;;;;;;6240040;22;20067;-76
2022/10/03 04:53:52;;;;;;;112.28;17.38;;;;;;;;;;6237255;23;20016;-77
2022/10/03 04:56:26;;;;;;;196.25;15.43;;;;;;;;;;6238192;23;20028;-76
2022/10/03 04:58:56;;;;;;;164.40;18.17;;;;;;;;;;6240406;23;20401;-76
2022/10/03 05:01:43;;;;;;;193.80;20.90;;;;;;;;;;6241313;23;20111;-76
2022/10/03 05:04:36;;;;;;;127.18;16.73;;;;;;;;;;6240200;23;20024;-76
2022/10/03 05:07:15;;;;;;;199.23;17.77;;;;;;;;;;6239431;23;20034;-76
2022/10/03 05:09:49;;;;;;;190.50;13.93;;;;;;;;;;6239706;23;20413;-76
2022/10/03 05:12:27;;;;;;;79.70;12.27;;;;;;;;;;6240037;23;20090;-76
2022/10/03 05:15:01;;;;;;;118.55;14.20;;;;;;;;;;6240698;23;20331;-75
2022/10/03 05:17:41;;;;;;;77.90;11.98;;;;;;;;;;6240245;23;20020;-75
2022/10/03 05:20:32;;;;;;;107.53;13.38;;;;;;;;;;6241245;22;20024;-76
2022/10/03 05:22:59;;;;;;;155.50;15.88;;;;;;;;;;6239663;23;20020;-75
2022/10/03 05:25:38;;;;;;;129.50;16.27;;;;;;;;;;6238214;23;20361;-76
2022/10/03 05:28:14;;;;;;;138.27;17.90;;;;;;;;;;6241611;23;20028;-76
2022/10/03 05:30:57;;;;;;;100.60;14.90;;;;;;;;;;6241687;22;20483;-76
2022/10/03 05:33:27;;;;;;;70.70;12.13;;;;;;;;;;6254599;22;20020;-76
2022/10/03 05:36:30;;;;;;;109.55;14.25;;;;;;;;;;6309493;22;20090;-75
2022/10/03 05:39:16;;;;;;;94.90;15.45;;;;;;;;;;6252261;22;20029;-75
2022/10/03 05:42:04;;;;;;;73.82;12.90;;;;;;;;;;6303637;22;20051;-76
2022/10/03 05:45:03;;;;;;;231.38;22.00;;;;;;;;;;6303504;22;20331;-76
2022/10/03 05:47:50;;;;;;;38.72;11.43;;;;;;;;;;6302947;22;20107;-75
2022/10/03 05:50:37;;;;;;;24.92;10.43;;;;;;;;;;6276101;22;20021;-75
2022/10/03 05:53:29;;;;;;;39.40;8.32;;;;;;;;;;6276881;22;20098;-76
2022/10/03 05:55:57;;;;;;;45.85;13.63;;;;;;;;;;6274608;22;20466;-76
2022/10/03 05:58:37;;;;;;;54.25;11.85;;;;;;;;;;6300597;22;20094;-76
2022/10/03 06:01:13;;;;;;;162.57;16.08;;;;;;;;;;6301996;22;20027;-75
2022/10/03 06:04:01;;;;;;;142.32;13.23;;;;;;;;;;6276058;22;20521;-75
2022/10/03 06:06:38;;;;;;;91.32;12.40;;;;;;;;;;6302122;22;20490;-76
2022/10/03 06:09:35;;;;;;;276.35;22.95;;;;;;;;;;6301120;22;20102;-76
2022/10/03 06:12:18;;;;;;;32.42;14.18;;;;;;;;;;6244378;22;20090;-76
2022/10/03 06:14:52;;;;;;;35.03;14.80;;;;;;;;;;6301456;22;20102;-75
2022/10/03 06:17:33;;;;;;;27.92;14.40;;;;;;;;;;6301246;22;20464;-75
2022/10/03 06:20:40;;;;;;;43.45;15.10;;;;;;;;;;6302645;22;20345;-76
2022/10/03 06:23:26;;;;;;;35.72;14.43;;;;;;;;;;6275701;22;20026;-75
2022/10/03 06:26:09;;;;;;;23.65;12.57;;;;;;;;;;6302181;22;20678;-75
2022/10/03 06:28:37;;;;;;;50.42;15.18;;;;;;;;;;6274694;22;20476;-76
2022/10/03 06:31:30;;;;;;;89.05;17.02;;;;;;;;;;6302052;22;20057;-75
2022/10/03 06:34:19;;;;;;;21.88;10.25;;;;;;;;;;6299554;22;20031;-75
2022/10/03 06:37:18;;;;;;;29.17;12.40;;;;;;;;;;6303263;22;20019;-76
2022/10/03 06:39:46;;;;;;;44.65;11.50;;;;;;;;;;6302336;22;20527;-76
2022/10/03 06:42:38;;;;;;;46.33;12.32;;;;;;;;;;6301111;22;20015;-77
2022/10/03 06:45:19;;;;;;;55.55;14.02;;;;;;;;;;6301922;22;20101;-75
2022/10/03 06:48:15;;;;;;;56.10;13.20;;;;;;;;;;6302085;22;20023;-75
2022/10/03 06:50:43;;;;;;;29.45;12.68;;;;;;;;;;6301460;22;20019;-75
2022/10/03 06:53:19;;;;;;;34.53;13.05;;;;;;;;;;6302200;22;20098;-76
2022/10/03 06:56:12;;;;;;;38.42;13.27;;;;;;;;;;6302240;22;20015;-75
2022/10/03 06:59:02;;;;;;;31.00;11.45;;;;;;;;;;6302808;22;20134;-76
2022/10/03 07:01:49;;;;;;;18.38;11.50;;;;;;;;;;6301396;22;20019;-76
2022/10/03 07:04:38;;;;;;;37.58;14.00;;;;;;;;;;6301364;22;20081;-76
2022/10/03 07:07:23;;;;;;;43.42;13.48;;;;;;;;;;6301862;22;20102;-76
2022/10/03 07:10:20;;;;;;;27.73;13.63;;;;;;;;;;6277742;22;20102;-75
2022/10/03 07:13:17;;;;;;;13.48;9.05;;;;;;;;;;6287300;22;20074;-76
2022/10/03 07:15:51;;;;;;;12.73;9.38;;;;;;;;;;6222090;22;20122;-77
2022/10/03 07:18:53;;;;;;;11.95;9.30;;;;;;;;;;6281118;22;20064;-76
2022/10/03 07:21:27;;;;;;;;;;;;;;;;;;6304288;22;20019;-76
2022/10/03 07:24:06;;;;;;;12.85;9.25;;;;;;;;;;6302448;22;19914;-76
2022/10/03 07:27:07;;;;;;;15.63;9.32;;;;;;;;;;6303107;22;20025;-76
2022/10/03 07:29:53;;;;;;;15.73;8.25;;;;;;;;;;6302281;22;20029;-77
2022/10/03 07:32:46;;;;;;;10.90;7.68;;;;;;;;;;6303916;22;20029;-76
2022/10/03 07:41:22;;;;;;;;;;;;;;;;;;6304054;22;20019;-76
2022/10/03 07:44:02;;;;;;;10.98;8.25;;;;;;;;;;6302856;22;20001;-77
2022/10/03 07:46:58;;;;;;;9.23;7.57;;;;;;;;;;6302017;22;20022;-76
2022/10/03 07:49:44;;;;;;;9.13;6.82;;;;;;;;;;6303355;22;20043;-77
2022/10/03 07:52:22;;;;;;;8.60;5.72;;;;;;;;;;6303669;22;20347;-77
2022/10/03 07:54:56;;;;;;;8.15;4.65;;;;;;;;;;6303485;22;20102;-77
2022/10/03 07:57:23;;;;;;;9.13;4.90;;;;;;;;;;6277465;22;20047;-77
2022/10/03 07:59:51;;;;;;;6.43;4.65;;;;;;;;;;6303648;22;20059;-77
2022/10/03 08:02:41;;;;;;;6.50;4.05;;;;;;;;;;6304641;22;20015;-78
2022/10/03 08:05:27;;;;;;;10.55;4.70;;;;;;;;;;6277578;22;20092;-77
2022/10/03 08:08:13;;;;;;;8.52;4.15;;;;;;;;;;6303188;22;20027;-77
2022/10/03 08:10:55;;;;;;;8.60;3.70;;;;;;;;;;6276397;22;20054;-78
2022/10/03 08:13:29;;;;;;;;;;;;;;;;;;6303700;22;20023;-77
2022/10/03 08:16:09;;;;;;;6.25;4.05;;;;;;;;;;6302998;22;19990;-77
2022/10/03 08:18:59;;;;;;;8.20;4.00;;;;;;;;;;6303636;22;20460;-77
2022/10/03 08:21:26;;;;;;;5.63;3.28;;;;;;;;;;6275568;22;20023;-78
2022/10/03 08:24:15;;;;;;;7.68;4.50;;;;;;;;;;6302687;22;20163;-78
2022/10/03 08:26:51;;;;;;;13.90;2.80;;;;;;;;;;6303474;22;20023;-77
2022/10/03 08:29:35;;;;;;;5.03;2.13;;;;;;;;;;6301908;22;20330;-77
2022/10/03 08:32:20;;;;;;;5.10;2.22;;;;;;;;;;6302032;22;20551;-78
2022/10/03 08:35:17;;;;;;;6.53;2.40;;;;;;;;;;6270605;22;20034;-77
2022/10/03 08:37:54;;;;;;;3.92;1.80;;;;;;;;;;6270608;22;20054;-78
2022/10/03 08:40:52;;;;;;;4.85;1.55;;;;;;;;;;6271979;22;20020;-78
2022/10/03 08:43:39;;;;;;;2.47;1.60;;;;;;;;;;6272306;22;20031;-77
2022/10/03 08:46:28;;;;;;;3.33;1.42;;;;;;;;;;6271687;22;20023;-77
2022/10/03 08:49:14;;;;;;;5.03;1.50;;;;;;;;;;6272102;22;20023;-77
2022/10/03 08:51:48;;;;;;;4.65;1.70;;;;;;;;;;6272193;22;20110;-77
2022/10/03 08:54:15;;;;;;;;;;;;;;;;;;6271925;22;20030;-77
2022/10/03 08:57:06;;;;;;;2.25;1.30;;;;;;;;;;6272829;22;19954;-77
2022/10/03 09:00:15;;;;;;;1.95;1.13;;;;;;;;;;6270777;22;20026;-77
2022/10/03 09:02:42;;;;;;;3.58;0.95;;;;;;;;;;6183610;23;20038;-77
2022/10/03 09:05:57;;;;;;;1.88;1.15;;;;;;;;;;6270320;22;20027;-76
2022/10/03 09:08:43;;;;;;;3.30;1.05;;;;;;;;;;6268680;22;20469;-77
2022/10/03 09:11:23;;;;;;;3.28;0.80;;;;;;;;;;6269992;22;20473;-77
2022/10/03 09:13:50;;;;;;;2.28;1.20;;;;;;;;;;6270910;22;20418;-77
2022/10/03 09:16:43;;;;;;;4.60;0.93;;;;;;;;;;6270968;22;20250;-77
2022/10/03 09:19:22;;;;;;;4.72;1.17;;;;;;;;;;6271296;22;20042;-77
2022/10/03 09:21:59;;;;;;;13.60;1.17;;;;;;;;;;6269510;22;20023;-77
2022/10/03 09:24:32;;;;;;;1.33;0.70;;;;;;;;;;6270942;22;20020;-77
2022/10/03 09:27:13;;;;;;;1.25;0.82;;;;;;;;;;6270546;22;20019;-77
2022/10/03 09:29:49;;;;;;;2.15;0.95;;;;;;;;;;6270885;22;20457;-78
2022/10/03 09:32:33;;;;;;;5.32;1.30;;;;;;;;;;6271451;22;20050;-77
2022/10/03 09:35:18;;;;;;;3.90;1.60;;;;;;;;;;6285969;22;20086;-77
2022/10/03 09:37:59;;;;;;;4.13;2.90;;;;;;;;;;6302063;22;20098;-77
2022/10/03 09:40:38;;;;;;;2.90;1.77;;;;;;;;;;6302196;22;20025;-78
2022/10/03 09:43:21;;;;;;;4.05;1.33;;;;;;;;;;6302185;22;20023;-78
2022/10/03 09:45:51;;;;;;;1.50;1.10;;;;;;;;;;6274394;22;20019;-77
2022/10/03 09:48:44;;;;;;;8.93;3.28;;;;;;;;;;6303314;22;20456;-78
2022/10/03 09:51:29;;;;;;;2.75;1.48;;;;;;;;;;6302573;22;20094;-77
2022/10/03 09:54:15;;;;;;;18.00;10.45;;;;;;;;;;6302422;22;20237;-77
2022/10/03 09:56:46;;;;;;;11.73;6.13;;;;;;;;;;6302676;22;20468;-77
2022/10/03 09:59:39;;;;;;;10.80;4.30;;;;;;;;;;6276768;22;20406;-78
2022/10/03 10:02:23;;;;;;;13.80;3.20;;;;;;;;;;6302639;22;20396;-77
2022/10/03 10:05:17;;;;;;;6.93;2.05;;;;;;;;;;6302374;22;20069;-78
2022/10/03 10:08:09;;;;;;;3.45;1.20;;;;;;;;;;6276221;22;20025;-77
2022/10/03 10:10:53;;;;;;;2.42;1.15;;;;;;;;;;6301389;22;20423;-77
2022/10/03 10:13:32;;;;;;;4.03;1.55;;;;;;;;;;6300681;22;20015;-77
2022/10/03 10:20:03;;;;;;;5.25;2.47;;;;;;;;;;6300859;22;20025;-77
2022/10/03 10:26:18;;;;;;;8.65;4.18;;;;;;;;;;6301190;22;20018;-77
2022/10/03 10:29:01;;;;;;;5.57;2.72;;;;;;;;;;6301636;22;20027;-77
2022/10/03 10:31:47;;;;;;;7.45;1.80;;;;;;;;;;6273413;22;20546;-77
2022/10/03 10:35:03;;;;;;;4.65;1.75;;;;;;;;;;6300125;22;20572;-77
2022/10/03 10:37:40;;;;;;;6.90;2.47;;;;;;;;;;6301564;22;20093;-77
2022/10/03 10:40:36;;;;;;;2.90;1.70;;;;;;;;;;6301825;22;20502;-77
2022/10/03 10:43:17;;;;;;;2.03;0.90;;;;;;;;;;6300951;22;20472;-77
2022/10/03 10:46:06;;;;;;;4.10;1.17;;;;;;;;;;6301169;22;20026;-77
2022/10/03 10:52:25;;;;;;;2.78;1.00;;;;;;;;;;6301385;22;20041;-77
2022/10/03 10:55:17;;;;;;;3.22;0.75;;;;;;;;;;6300500;22;20033;-78
2022/10/03 10:57:52;;;;;;;2.08;1.10;;;;;;;;;;6300858;22;20106;-78
2022/10/03 11:00:19;;;;;;;5.53;0.82;;;;;;;;;;6299701;22;20381;-77
2022/10/03 11:02:53;;;;;;;5.63;0.85;;;;;;;;;;6301483;22;20019;-77
2022/10/03 11:05:28;;;;;;;1.77;0.98;;;;;;;;;;6300783;22;20023;-78
2022/10/03 11:08:08;;;;;;;3.15;1.00;;;;;;;;;;6275261;22;20015;-77
2022/10/03 11:10:35;;;;;;;3.92;1.25;;;;;;;;;;6274412;22;20065;-77
2022/10/03 11:13:42;;;;;;;6.25;2.30;;;;;;;;;;6275506;22;20025;-77
2022/10/03 11:16:09;;;;;;;;;;;;;;;;;;6302318;22;20050;-77
2022/10/03 11:19:01;;;;;;;3.28;1.02;;;;;;;;;;6300990;22;20286;-77
2022/10/03 11:21:32;;;;;;;2.25;1.00;;;;;;;;;;6301847;22;20054;-77
2022/10/03 11:24:09;;;;;;;4.57;0.85;;;;;;;;;;6300496;22;20062;-77
2022/10/03 11:27:01;;;;;;;5.75;1.00;;;;;;;;;;6301193;22;20023;-78
2022/10/03 11:29:49;;;;;;;2.75;0.60;;;;;;;;;;6301039;22;20137;-77
2022/10/03 11:32:42;;;;;;;2.70;0.80;;;;;;;;;;6301148;22;20107;-78
2022/10/03 11:35:32;;;;;;;3.78;0.73;;;;;;;;;;6298734;22;20065;-77
2022/10/03 11:38:25;;;;;;;3.85;0.70;;;;;;;;;;6300832;22;20077;-77
2022/10/03 11:40:57;;;;;;;4.05;1.23;;;;;;;;;;6301241;22;20030;-77
2022/10/03 11:43:40;;;;;;;2.45;1.08;;;;;;;;;;6300239;22;20110;-77
2022/10/03 11:46:29;;;;;;;5.57;1.33;;;;;;;;;;6300562;22;20098;-77
2022/10/03 11:49:10;;;;;;;6.28;2.63;;;;;;;;;;6300024;22;20106;-77
2022/10/03 11:51:43;;;;;;;2.85;1.42;;;;;;;;;;6300546;22;20027;-77
2022/10/03 11:54:24;;;;;;;9.60;3.30;;;;;;;;;;6300405;22;20352;-77
2022/10/03 11:57:07;;;;;;;6.15;2.63;;;;;;;;;;6300603;22;20027;-77
2022/10/03 11:59:50;;;;;;;2.78;1.30;;;;;;;;;;6301120;22;20015;-77
2022/10/03 12:02:27;;;;;;;9.65;3.53;;;;;;;;;;6301982;22;20098;-77
2022/10/03 12:05:07;;;;;;;3.10;1.63;;;;;;;;;;6302307;22;20035;-77
2022/10/03 12:11:00;;;;;;;4.10;1.35;;;;;;;;;;6303226;22;20488;-77
2022/10/03 12:13:38;;;;;;;2.58;0.70;;;;;;;;;;6302416;22;20020;-77
2022/10/03 12:16:19;;;;;;;2.47;0.80;;;;;;;;;;6302261;22;20062;-77
2022/10/03 12:19:02;;;;;;;2.30;0.68;;;;;;;;;;6303182;22;20356;-75
2022/10/03 12:21:51;;;;;;;2.50;0.80;;;;;;;;;;6303148;22;20031;-74
2022/10/03 12:24:28;;;;;;;1.10;0.93;;;;;;;;;;6302958;22;20015;-75
2022/10/03 12:27:22;;;;;;;2.03;0.93;;;;;;;;;;6302803;22;20099;-75
2022/10/03 12:29:57;;;;;;;2.72;0.63;;;;;;;;;;6301741;22;20411;-75
2022/10/03 12:32:34;;;;;;;4.13;1.65;;;;;;;;;;6278459;22;20023;-75
2022/10/03 12:35:21;;;;;;;5.68;2.75;;;;;;;;;;6298059;22;20738;-77
2022/10/03 12:38:05;;;;;;;1.77;0.70;;;;;;;;;;6303860;22;20098;-77
2022/10/03 12:40:32;;;;;;;1.05;0.55;;;;;;;;;;6303140;22;20063;-77
2022/10/03 12:43:20;;;;;;;2.22;0.60;;;;;;;;;;6303171;22;20098;-75
2022/10/03 12:45:50;;;;;;;2.95;1.45;;;;;;;;;;6303668;22;20025;-75
2022/10/03 12:48:44;;;;;;;4.63;1.77;;;;;;;;;;6276427;22;20445;-75
2022/10/03 12:51:30;;;;;;;2.78;1.05;;;;;;;;;;6303368;22;20101;-77
2022/10/03 12:54:27;;;;;;;1.88;0.70;;;;;;;;;;6302497;22;20077;-77
2022/10/03 12:56:57;;;;;;;2.92;0.93;;;;;;;;;;6301941;22;20465;-76
2022/10/03 12:59:41;;;;;;;7.40;1.55;;;;;;;;;;6303594;22;20023;-77
2022/10/03 13:02:20;;;;;;;4.07;0.82;;;;;;;;;;6303114;22;20025;-77
2022/10/03 13:04:54;;;;;;;1.55;0.65;;;;;;;;;;6300709;22;20115;-77
2022/10/03 13:07:28;;;;;;;1.90;0.93;;;;;;;;;;6302907;22;20019;-77
2022/10/03 13:10:08;;;;;;;2.63;0.73;;;;;;;;;;6302644;22;20102;-76
2022/10/03 13:12:40;;;;;;;5.68;0.80;;;;;;;;;;6274783;22;20020;-76
2022/10/03 13:15:32;;;;;;;3.53;1.30;;;;;;;;;;6301723;22;20023;-77
2022/10/03 13:18:19;;;;;;;4.63;1.67;;;;;;;;;;6302065;22;20046;-77
2022/10/03 13:20:59;;;;;;;2.85;0.80;;;;;;;;;;6276232;22;20026;-77
2022/10/03 13:23:41;;;;;;;2.58;1.23;;;;;;;;;;6302306;22;20102;-77
2022/10/03 13:26:15;;;;;;;;;;;;;;;;;;6302891;22;20130;-77
2022/10/03 13:29:16;;;;;;;2.72;1.05;;;;;;;;;;6301842;22;20041;-77
2022/10/03 13:32:10;;;;;;;3.88;1.23;;;;;;;;;;6245432;22;20330;-77
2022/10/03 13:34:58;;;;;;;3.00;1.25;;;;;;;;;;6283943;22;20506;-78
2022/10/03 13:37:56;;;;;;;6.32;1.25;;;;;;;;;;6302384;22;20106;-75
2022/10/03 13:40:26;;;;;;;5.03;1.08;;;;;;;;;;6301612;22;20098;-75
2022/10/03 13:43:02;;;;;;;2.13;0.90;;;;;;;;;;6301490;22;20030;-73
2022/10/03 13:45:30;;;;;;;2.20;0.60;;;;;;;;;;6274663;22;20019;-75
2022/10/03 13:48:06;;;;;;;2.97;1.25;;;;;;;;;;6302561;22;20027;-75
2022/10/03 13:51:00;;;;;;;8.55;1.17;;;;;;;;;;6302080;22;20027;-75
2022/10/03 13:53:28;;;;;;;2.17;1.20;;;;;;;;;;6274315;22;20046;-77
2022/10/03 13:56:07;;;;;;;4.88;1.58;;;;;;;;;;6301461;22;20061;-77
2022/10/03 13:58:34;;;;;;;7.47;2.67;;;;;;;;;;6301274;22;20019;-75
2022/10/03 14:01:28;;;;;;;7.75;2.53;;;;;;;;;;6301915;22;20047;-74
2022/10/03 14:03:56;;;;;;;4.57;1.60;;;;;;;;;;6301095;22;20299;-74
2022/10/03 14:06:33;;;;;;;4.47;1.38;;;;;;;;;;6301779;22;20465;-74
2022/10/03 14:09:13;;;;;;;4.13;1.15;;;;;;;;;;6300929;22;20019;-75
2022/10/03 14:12:11;;;;;;;3.90;1.00;;;;;;;;;;6301272;22;20023;-75
2022/10/03 14:14:44;;;;;;;7.07;2.17;;;;;;;;;;6300737;22;20019;-75
2022/10/03 14:17:29;;;;;;;2.83;1.02;;;;;;;;;;6300505;22;20543;-74
2022/10/03 14:20:02;;;;;;;1.38;0.90;;;;;;;;;;6273447;22;20624;-75
2022/10/03 14:22:36;;;;;;;1.55;0.82;;;;;;;;;;6302084;22;20029;-74
2022/10/03 14:25:17;;;;;;;4.13;1.05;;;;;;;;;;6299989;22;20047;-75
2022/10/03 14:27:54;;;;;;;3.58;0.90;;;;;;;;;;6301579;22;20352;-77
2022/10/03 14:30:23;;;;;;;4.07;1.05;;;;;;;;;;6301553;22;20054;-76
2022/10/03 14:32:53;;;;;;;2.70;0.98;;;;;;;;;;6300972;22;20015;-77
2022/10/03 14:35:46;;;;;;;3.17;1.02;;;;;;;;;;6297875;22;20464;-76
2022/10/03 14:38:57;;;;;;;4.60;1.40;;;;;;;;;;6301734;22;20094;-77
2022/10/03 14:41:38;;;;;;;4.05;0.77;;;;;;;;;;6301497;22;20041;-77
2022/10/03 14:44:21;;;;;;;4.28;1.10;;;;;;;;;;6299961;22;20054;-77
2022/10/03 14:46:58;;;;;;;4.07;1.10;;;;;;;;;;6299171;22;20034;-77
2022/10/03 14:49:27;;;;;;;5.00;1.30;;;;;;;;;;6300972;22;20102;-77
2022/10/03 14:52:27;;;;;;;3.97;1.20;;;;;;;;;;6302346;22;20023;-77
2022/10/03 14:54:55;;;;;;;3.35;1.00;;;;;;;;;;6300373;22;20015;-76
2022/10/03 14:57:36;;;;;;;5.93;1.30;;;;;;;;;;6275963;22;20520;-77
2022/10/03 15:00:26;;;;;;;8.27;1.42;;;;;;;;;;6279012;22;20344;-77
2022/10/03 15:03:12;;;;;;;5.60;1.15;;;;;;;;;;6275173;22;20544;-77
2022/10/03 15:05:54;;;;;;;3.30;0.77;;;;;;;;;;6300210;22;20038;-76
2022/10/03 15:08:34;;;;;;;1.67;0.93;;;;;;;;;;6301310;22;20356;-77
2022/10/03 15:11:02;;;;;;;6.57;1.23;;;;;;;;;;6298326;22;20102;-77
2022/10/03 15:13:41;;;;;;;4.70;1.20;;;;;;;;;;6301238;22;20107;-76
2022/10/03 15:16:09;;;;;;;4.85;0.88;;;;;;;;;;6274107;22;20030;-76
2022/10/03 15:18:55;;;;;;;4.40;1.17;;;;;;;;;;6297036;22;20015;-77
2022/10/03 15:21:22;;;;;;;5.13;1.10;;;;;;;;;;6300728;22;20138;-77
2022/10/03 15:24:01;;;;;;;3.72;1.05;;;;;;;;;;6300197;22;20024;-77
2022/10/03 15:26:30;;;;;;;2.72;1.00;;;;;;;;;;6300089;22;20102;-77
2022/10/03 15:29:06;;;;;;;6.43;1.20;;;;;;;;;;6301396;22;20054;-76
2022/10/03 15:31:37;;;;;;;2.97;1.23;;;;;;;;;;6273421;22;20023;-77
2022/10/03 15:34:15;;;;;;;3.92;1.38;;;;;;;;;;6275307;22;20596;-76
2022/10/03 15:36:50;;;;;;;2.50;1.20;;;;;;;;;;6300090;22;20023;-76
2022/10/03 15:39:35;;;;;;;5.88;1.15;;;;;;;;;;6302558;22;20029;-77
2022/10/03 15:42:06;;;;;;;6.85;1.10;;;;;;;;;;6303220;22;20019;-76
2022/10/03 15:44:52;;;;;;;5.65;1.35;;;;;;;;;;6277876;22;20023;-76
2022/10/03 15:47:21;;;;;;;5.47;1.20;;;;;;;;;;6302428;22;20460;-77
2022/10/03 15:49:58;;;;;;;3.15;1.10;;;;;;;;;;6303172;22;20027;-76
2022/10/03 15:52:44;;;;;;;3.10;1.27;;;;;;;;;;6303730;22;20092;-77
2022/10/03 15:55:41;;;;;;;2.47;1.10;;;;;;;;;;6302683;22;20106;-76
2022/10/03 15:58:14;;;;;;;4.90;1.63;;;;;;;;;;6275454;22;20019;-76
2022/10/03 16:00:53;;;;;;;4.07;1.52;;;;;;;;;;6278217;22;20059;-76
2022/10/03 16:03:28;;;;;;;4.13;1.30;;;;;;;;;;6303950;22;20026;-76
2022/10/03 16:06:10;;;;;;;5.97;1.50;;;;;;;;;;6303078;22;20122;-76
2022/10/03 16:08:46;;;;;;;4.43;1.20;;;;;;;;;;6302413;22;20452;-77
2022/10/03 16:11:22;;;;;;;3.47;1.30;;;;;;;;;;6302712;22;20027;-76
2022/10/03 16:13:59;;;;;;;4.55;1.30;;;;;;;;;;6303708;22;20103;-77
2022/10/03 16:16:33;;;;;;;6.00;1.42;;;;;;;;;;6303768;22;20050;-77
2022/10/03 16:19:19;;;;;;;11.50;1.48;;;;;;;;;;6303026;22;20080;-76
2022/10/03 16:22:16;;;;;;;5.28;1.30;;;;;;;;;;6303350;22;20019;-77
2022/10/03 16:24:59;;;;;;;8.77;1.35;;;;;;;;;;6289916;22;20049;-76